Time;durP1;ratioP1;P1;durP2;ratioP2;P2;SDS_P1;SDS_P2;PMS_P1;PMS_P2;Temp;Humidity;BMP_temperature;BMP_pressure;BME280_temperature;BME280_humidity;BME280_pressure;Samples;Min_cycle;Max_cycle;Signal;HPM_P1;HPM_P2
2023/01/18 00:01:34;;;;;;;12.77;9.57;;;;;;;-0.16;68.33;97784.09;5051700;28;20053;-62
2023/01/18 00:04:02;;;;;;;14.32;9.00;;;;;;;-0.21;68.46;97785.03;5047432;28;20049;-62
2023/01/18 00:06:29;;;;;;;15.27;10.05;;;;;;;-0.21;68.26;97782.28;5049024;28;20494;-62
2023/01/18 00:08:56;;;;;;;14.82;10.48;;;;;;;-0.22;67.86;97780.66;5046241;28;20054;-62
2023/01/18 00:11:24;;;;;;;15.30;10.10;;;;;;;-0.19;68.46;97783.91;5048653;28;20053;-62
2023/01/18 00:13:52;;;;;;;19.10;9.93;;;;;;;-0.23;67.99;97783.72;5045285;28;20493;-62
2023/01/18 00:16:24;;;;;;;12.65;9.40;;;;;;;-0.18;68.61;97780.06;5042355;28;20069;-61
2023/01/18 00:18:55;;;;;;;14.10;10.15;;;;;;;-0.23;68.29;97781.78;5041554;28;20064;-62
2023/01/18 00:21:23;;;;;;;17.35;9.57;;;;;;;-0.27;68.51;97785.47;5051699;28;20049;-62
2023/01/18 00:23:50;;;;;;;13.85;9.60;;;;;;;-0.26;67.76;97781.59;5052983;28;20053;-61
2023/01/18 00:26:18;;;;;;;13.18;8.93;;;;;;;-0.28;68.32;97775.63;5050332;28;20060;-62
2023/01/18 00:28:49;;;;;;;13.05;9.10;;;;;;;-0.31;67.82;97782.53;5050398;28;20048;-62
2023/01/18 00:31:19;;;;;;;17.13;10.30;;;;;;;-0.36;67.90;97790.84;5039839;28;20049;-62
2023/01/18 00:33:48;;;;;;;15.30;10.32;;;;;;;-0.38;67.82;97778.59;5044207;28;20053;-62
2023/01/18 00:36:17;;;;;;;16.45;10.35;;;;;;;-0.48;67.92;97791.41;5048698;28;20052;-61
2023/01/18 00:38:50;;;;;;;18.05;10.85;;;;;;;-0.52;68.18;97787.66;5052458;28;20052;-62
2023/01/18 00:41:17;;;;;;;18.48;10.68;;;;;;;-0.50;68.27;97790.91;5043671;28;20049;-62
2023/01/18 00:43:43;;;;;;;15.80;10.55;;;;;;;-0.51;67.89;97786.53;5041117;28;20076;-62
2023/01/18 00:46:12;;;;;;;15.00;10.18;;;;;;;-0.50;68.59;97782.69;5051547;28;20049;-62
2023/01/18 00:48:44;;;;;;;18.00;9.98;;;;;;;-0.49;68.19;97788.97;5041077;28;20071;-63
2023/01/18 00:51:15;;;;;;;18.00;11.40;;;;;;;-0.47;68.18;97786.72;5050529;28;20048;-62
2023/01/18 00:53:45;;;;;;;15.27;11.23;;;;;;;-0.60;68.27;97793.84;5051833;28;20056;-63
2023/01/18 00:56:14;;;;;;;15.40;10.90;;;;;;;-0.60;68.28;97791.13;5040172;28;20058;-62
2023/01/18 00:58:47;;;;;;;16.70;10.05;;;;;;;-0.58;68.52;97791.63;5045734;28;20417;-62
2023/01/18 01:01:15;;;;;;;14.90;10.13;;;;;;;-0.56;68.59;97791.31;5052382;28;20081;-62
2023/01/18 01:06:45;;;;;;;15.63;10.20;;;;;;;-0.61;68.33;97800.41;5057309;28;20394;-62
2023/01/18 01:09:19;;;;;;;16.80;10.23;;;;;;;-0.66;68.96;97792.34;5040851;28;20045;-62
2023/01/18 01:28:13;;;;;;;14.25;9.50;;;;;;;-0.69;68.37;97809.38;5041364;28;20056;-62
2023/01/18 01:30:40;;;;;;;17.90;10.60;;;;;;;-0.71;68.89;97806.94;5048449;28;20056;-62
2023/01/18 01:33:10;;;;;;;14.15;10.45;;;;;;;-0.69;68.63;97810.19;5043734;28;20056;-63
2023/01/18 01:35:38;;;;;;;15.20;9.40;;;;;;;-0.64;68.48;97801.03;5038405;28;20057;-62
2023/01/18 01:38:05;;;;;;;16.63;10.10;;;;;;;-0.62;68.21;97794.16;5042192;28;20057;-62
2023/01/18 01:40:34;;;;;;;11.90;8.27;;;;;;;-0.63;67.80;97797.19;5050883;28;20045;-61
2023/01/18 01:43:01;;;;;;;14.43;8.85;;;;;;;-0.67;66.98;97801.69;5040501;28;20136;-62
2023/01/18 01:45:31;;;;;;;13.57;8.50;;;;;;;-0.70;67.37;97802.28;5036983;28;20057;-62
2023/01/18 01:47:58;;;;;;;;;;;;;;;-0.74;67.91;97812.19;5046755;28;20048;-62
2023/01/18 01:50:34;;;;;;;13.73;9.82;;;;;;;-0.77;68.12;97812.81;5041150;28;19921;-61
2023/01/18 01:53:02;;;;;;;13.98;9.32;;;;;;;-0.91;68.66;97813.63;5050330;28;20061;-62
2023/01/18 01:55:32;;;;;;;16.75;10.52;;;;;;;-0.89;68.22;97805.94;5051872;28;20059;-62
2023/01/18 01:58:04;;;;;;;16.40;10.30;;;;;;;-0.87;68.60;97811.91;5046368;28;20422;-62
2023/01/18 02:00:32;;;;;;;14.98;9.40;;;;;;;-0.85;68.28;97817.88;5032510;28;20045;-62
2023/01/18 02:03:05;;;;;;;15.63;10.13;;;;;;;-0.83;68.23;97812.09;5045852;28;20052;-62
2023/01/18 02:05:35;;;;;;;12.13;9.13;;;;;;;-0.86;68.55;97810.81;5048765;28;20056;-62
2023/01/18 02:08:04;;;;;;;14.30;9.38;;;;;;;-0.85;68.63;97817.88;5042293;28;20057;-62
2023/01/18 02:10:32;;;;;;;18.97;10.10;;;;;;;-0.81;68.66;97820.81;5032192;28;20050;-62
2023/01/18 02:13:01;;;;;;;16.63;10.07;;;;;;;-0.79;68.73;97825.97;5036523;28;20057;-62
2023/01/18 02:15:36;;;;;;;15.00;9.90;;;;;;;-0.79;68.31;97826.78;5032168;28;20064;-62
2023/01/18 02:18:30;;;;;;;15.00;10.25;;;;;;;-0.79;68.73;97826.78;5038903;28;20068;-62
2023/01/18 02:21:13;;;;;;;19.88;11.32;;;;;;;-0.86;68.18;97826.38;5049857;28;20053;-62
2023/01/18 02:24:19;;;;;;;14.52;9.60;;;;;;;-0.87;68.54;97822.03;5037685;28;20064;-62
2023/01/18 02:26:57;;;;;;;15.20;9.85;;;;;;;-0.84;67.72;97830.44;5041005;28;20148;-62
2023/01/18 02:29:45;;;;;;;13.95;9.73;;;;;;;-0.89;67.92;97840.66;5042066;28;20041;-62
2023/01/18 02:32:22;;;;;;;14.68;9.55;;;;;;;-0.90;67.83;97841.78;5054884;28;20048;-62
2023/01/18 02:34:53;;;;;;;16.17;10.32;;;;;;;-0.92;68.06;97836.59;5047922;28;20060;-61
2023/01/18 02:37:36;;;;;;;13.95;9.70;;;;;;;-0.90;68.58;97844.50;5052682;28;20049;-62
2023/01/18 02:40:17;;;;;;;17.70;10.25;;;;;;;-0.91;67.99;97834.69;5041426;28;20386;-62
2023/01/18 02:48:22;;;;;;;14.38;9.65;;;;;;;-0.99;68.19;97852.59;5048904;28;20060;-62
2023/01/18 02:50:49;;;;;;;17.05;10.63;;;;;;;-0.98;67.92;97853.41;5053324;28;20053;-62
2023/01/18 02:53:19;;;;;;;15.65;9.77;;;;;;;-1.00;68.56;97858.38;5047390;28;20069;-62
2023/01/18 02:55:53;;;;;;;16.52;11.57;;;;;;;-0.97;67.98;97861.28;5035514;28;20064;-62
2023/01/18 02:58:28;;;;;;;17.67;11.68;;;;;;;-0.96;68.08;97854.72;5046500;28;20381;-62
2023/01/18 03:01:03;;;;;;;17.88;11.50;;;;;;;-0.96;68.50;97854.72;5040557;28;20045;-62
2023/01/18 03:03:30;;;;;;;15.93;9.63;;;;;;;-0.94;68.21;97863.44;5051931;28;20409;-62
2023/01/18 03:06:00;;;;;;;15.90;9.52;;;;;;;-0.95;67.60;97867.25;5052367;28;20049;-62
2023/01/18 03:08:34;;;;;;;16.52;10.35;;;;;;;-0.96;67.55;97870.31;5050863;28;20049;-62
2023/01/18 03:11:06;;;;;;;15.45;9.63;;;;;;;-0.97;67.42;97864.00;5055790;28;20052;-62
2023/01/18 03:13:55;;;;;;;16.38;10.35;;;;;;;-0.95;67.88;97871.91;5054678;28;20053;-62
2023/01/18 03:16:26;;;;;;;14.32;9.48;;;;;;;-1.02;68.38;97875.84;5035216;28;20053;-62
2023/01/18 03:19:02;;;;;;;15.05;9.55;;;;;;;-1.03;67.86;97874.25;5054875;28;20489;-62
2023/01/18 03:21:37;;;;;;;17.10;9.88;;;;;;;-0.96;67.85;97875.78;5053379;28;20064;-62
2023/01/18 03:24:06;;;;;;;16.08;9.98;;;;;;;-1.02;67.69;97872.31;5051948;28;20053;-62
2023/01/18 03:26:39;;;;;;;14.67;9.97;;;;;;;-1.01;68.14;97876.66;5043540;28;20057;-61
2023/01/18 03:34:50;;;;;;;15.32;10.07;;;;;;;-1.05;68.12;97872.91;5059844;28;20068;-62
2023/01/18 03:37:22;;;;;;;17.40;10.70;;;;;;;-0.99;67.72;97877.16;5050957;28;20050;-62
2023/01/18 03:39:54;;;;;;;18.35;11.00;;;;;;;-1.04;68.59;97869.88;5034430;28;20061;-63
2023/01/18 03:42:26;;;;;;;13.05;9.50;;;;;;;-1.04;68.15;97880.00;5046829;28;20052;-62
2023/01/18 03:44:58;;;;;;;18.40;12.00;;;;;;;-1.05;68.38;97873.75;5053441;28;20049;-62
2023/01/18 03:47:27;;;;;;;14.98;10.13;;;;;;;-1.05;67.68;97875.66;5052351;28;20160;-62
2023/01/18 03:49:54;;;;;;;17.35;10.45;;;;;;;-1.02;68.17;97885.97;5050963;28;20374;-62
2023/01/18 03:52:25;;;;;;;15.68;10.43;;;;;;;-0.97;68.15;97890.53;5050182;28;20064;-62
2023/01/18 03:55:01;;;;;;;17.13;10.18;;;;;;;-0.97;67.67;97896.81;5048532;28;20051;-62
2023/01/18 03:57:34;;;;;;;15.40;9.88;;;;;;;-1.04;68.42;97894.47;5053991;28;20064;-63
2023/01/18 04:00:04;;;;;;;15.38;10.68;;;;;;;-1.06;68.19;97904.09;5049324;28;20053;-62
2023/01/18 04:02:33;;;;;;;;;;;;;;;-1.15;68.03;97889.53;5053453;28;20056;-60
2023/01/18 04:05:02;;;;;;;14.95;9.60;;;;;;;-1.12;67.80;97899.81;5042241;28;19924;-61
2023/01/18 04:07:30;;;;;;;17.10;10.65;;;;;;;-1.12;68.34;97889.72;5045200;28;20253;-62
2023/01/18 04:09:57;;;;;;;17.38;10.48;;;;;;;-1.07;67.62;97902.44;5040858;28;20057;-62
2023/01/18 04:12:25;;;;;;;15.18;9.52;;;;;;;-1.03;68.24;97900.75;5041911;28;20049;-62
2023/01/18 04:14:52;;;;;;;15.20;9.60;;;;;;;-1.02;68.00;97899.66;5041971;28;20060;-62
2023/01/18 04:17:20;;;;;;;14.40;9.40;;;;;;;-1.07;67.84;97903.28;5053607;28;20052;-62
2023/01/18 04:19:48;;;;;;;15.77;10.15;;;;;;;-1.07;68.03;97911.47;5051528;28;20052;-62
2023/01/18 04:22:16;;;;;;;17.35;10.60;;;;;;;-1.05;67.41;97917.44;5052125;28;20056;-62
2023/01/18 04:24:43;;;;;;;14.73;9.70;;;;;;;-1.02;68.16;97921.50;5048172;28;20477;-62
2023/01/18 04:27:10;;;;;;;12.93;8.93;;;;;;;-1.04;67.50;97923.72;5050776;28;20059;-62
2023/01/18 04:29:38;;;;;;;14.63;9.40;;;;;;;-1.04;67.36;97926.44;5043101;28;20049;-63
2023/01/18 04:32:06;;;;;;;16.38;10.57;;;;;;;-1.05;67.21;97922.09;5035497;28;20053;-62
2023/01/18 04:34:33;;;;;;;17.20;10.63;;;;;;;-1.06;67.99;97928.66;5052513;28;20057;-62
2023/01/18 04:37:01;;;;;;;22.23;10.85;;;;;;;-1.05;67.41;97928.38;5051736;28;20064;-62
2023/01/18 04:39:29;;;;;;;19.50;10.60;;;;;;;-1.04;67.42;97926.44;5042447;28;20049;-62
2023/01/18 04:41:56;;;;;;;15.05;9.55;;;;;;;-1.05;67.74;97925.66;5052066;28;20049;-62
2023/01/18 04:44:23;;;;;;;14.57;9.20;;;;;;;-1.05;68.16;97933.84;5038696;28;20048;-62
2023/01/18 04:46:51;;;;;;;18.98;10.80;;;;;;;-1.03;67.70;97937.09;5045420;28;20400;-62
2023/01/18 04:49:18;;;;;;;15.38;9.90;;;;;;;-0.99;67.48;97931.81;5049280;28;20049;-62
2023/01/18 04:51:47;;;;;;;15.52;9.52;;;;;;;-1.00;68.01;97941.13;5032828;28;20081;-61
2023/01/18 04:54:17;;;;;;;16.65;9.32;;;;;;;-0.96;68.24;97936.69;5050423;28;20041;-62
2023/01/18 04:56:45;;;;;;;15.27;9.77;;;;;;;-1.02;67.66;97935.16;5048893;28;20504;-62
2023/01/18 04:59:15;;;;;;;16.00;9.57;;;;;;;-1.03;68.72;97942.56;5052597;28;20500;-62
2023/01/18 05:01:42;;;;;;;16.30;10.30;;;;;;;-1.01;68.90;97942.22;5052174;28;20044;-62
2023/01/18 05:04:10;;;;;;;15.60;9.63;;;;;;;-0.96;68.38;97942.16;5051556;28;20052;-61
2023/01/18 05:06:37;;;;;;;16.50;9.55;;;;;;;-0.93;68.87;97947.00;5049192;28;20386;-61
2023/01/18 05:09:05;;;;;;;15.25;10.40;;;;;;;-0.91;68.27;97955.72;5051494;28;20391;-61
2023/01/18 05:11:33;;;;;;;16.48;10.60;;;;;;;-0.92;68.71;97959.56;5040124;28;20049;-62
2023/01/18 05:14:00;;;;;;;16.40;10.50;;;;;;;-0.88;68.30;97954.31;5048983;28;20060;-62
2023/01/18 05:16:28;;;;;;;16.80;10.32;;;;;;;-0.87;68.01;97953.19;5033504;28;20050;-62
2023/01/18 05:18:55;;;;;;;15.90;9.80;;;;;;;-0.87;68.51;97961.38;5043132;28;20062;-62
2023/01/18 05:21:22;;;;;;;15.95;9.93;;;;;;;-0.92;67.72;97967.75;5051636;28;20407;-62
2023/01/18 05:23:49;;;;;;;16.73;10.90;;;;;;;-0.91;67.40;97966.63;5043302;28;20048;-62
2023/01/18 05:26:18;;;;;;;13.80;9.05;;;;;;;-0.94;67.91;97982.84;5037916;28;20058;-62
2023/01/18 05:28:47;;;;;;;16.08;9.43;;;;;;;-0.96;67.46;97977.66;5038254;28;20517;-62
2023/01/18 05:31:17;;;;;;;17.13;10.02;;;;;;;-0.95;67.79;97983.94;5032451;28;20060;-62
2023/01/18 05:33:45;;;;;;;14.93;8.98;;;;;;;-0.93;67.45;97989.91;5039384;28;20498;-62
2023/01/18 05:36:12;;;;;;;15.07;9.35;;;;;;;-0.96;67.57;97988.59;5047512;28;20382;-59
2023/01/18 05:38:39;;;;;;;15.60;9.90;;;;;;;-1.07;66.72;97996.16;5042663;28;20417;-62
2023/01/18 05:41:06;;;;;;;14.43;9.60;;;;;;;-1.11;67.21;97999.78;5048339;28;20059;-63
2023/01/18 05:43:34;;;;;;;18.73;10.55;;;;;;;-1.16;67.01;97995.22;5042879;28;20053;-62
2023/01/18 05:46:03;;;;;;;16.58;9.63;;;;;;;-1.12;66.98;97996.22;5032785;28;20080;-62
2023/01/18 05:48:30;;;;;;;15.55;9.05;;;;;;;-1.14;66.47;97998.44;5042219;28;20052;-61
2023/01/18 05:50:58;;;;;;;17.05;9.25;;;;;;;-1.11;66.79;97999.78;5044717;28;20063;-62
2023/01/18 05:53:25;;;;;;;16.50;10.15;;;;;;;-1.09;66.40;97997.53;5051510;28;20478;-62
2023/01/18 05:55:57;;;;;;;15.05;9.30;;;;;;;-1.10;66.08;98012.34;5047034;28;20057;-62
2023/01/18 05:58:24;;;;;;;14.70;9.45;;;;;;;-1.15;66.98;98009.69;5045017;28;20070;-62
2023/01/18 06:00:52;;;;;;;17.13;10.52;;;;;;;-1.23;66.30;98020.16;5038333;28;20072;-62
2023/01/18 06:03:21;;;;;;;18.58;10.32;;;;;;;-1.25;66.82;98011.47;5051124;28;20052;-62
2023/01/18 06:05:50;;;;;;;16.90;9.53;;;;;;;-1.30;67.28;98025.22;5049256;28;20052;-62
2023/01/18 06:08:17;;;;;;;14.98;9.35;;;;;;;-1.30;67.34;98035.31;5046335;28;20052;-62
2023/01/18 06:10:51;;;;;;;16.77;9.70;;;;;;;-1.30;67.25;98030.69;5038544;28;20057;-62
2023/01/18 06:13:18;;;;;;;17.33;10.63;;;;;;;-1.32;67.57;98041.09;5045195;28;20382;-62
2023/01/18 06:15:46;;;;;;;13.02;8.77;;;;;;;-1.30;66.57;98038.88;5040607;28;20501;-62
2023/01/18 06:18:13;;;;;;;14.90;9.05;;;;;;;-1.25;67.43;98044.25;5037812;28;20060;-62
2023/01/18 06:20:42;;;;;;;15.93;10.45;;;;;;;-1.27;66.26;98046.44;5045324;28;20057;-62
2023/01/18 06:23:09;;;;;;;14.40;8.85;;;;;;;-1.28;66.32;98053.03;5046375;28;20377;-61
2023/01/18 06:25:36;;;;;;;13.55;8.88;;;;;;;-1.28;67.31;98057.66;5047921;28;20049;-63
2023/01/18 06:28:05;;;;;;;19.52;10.70;;;;;;;-1.44;66.33;98054.38;5049462;28;20049;-62
2023/01/18 06:30:33;;;;;;;17.58;10.63;;;;;;;-1.45;67.23;98063.66;5043523;28;20057;-62
2023/01/18 06:33:03;;;;;;;21.27;11.50;;;;;;;-1.50;66.50;98061.00;5043383;28;20453;-62
2023/01/18 06:35:31;;;;;;;17.75;9.77;;;;;;;-1.49;66.71;98065.34;5036271;28;20049;-62
2023/01/18 06:37:59;;;;;;;15.10;9.32;;;;;;;-1.60;66.81;98064.69;5045703;28;20516;-62
2023/01/18 06:40:27;;;;;;;15.32;10.30;;;;;;;-1.61;67.69;98070.44;5049177;28;20057;-62
2023/01/18 06:42:54;;;;;;;17.58;9.90;;;;;;;-1.59;66.68;98074.50;5047281;28;20060;-62
2023/01/18 06:45:21;;;;;;;17.08;9.63;;;;;;;-1.55;67.52;98081.00;5047124;28;20473;-62
2023/01/18 06:47:49;;;;;;;14.40;9.15;;;;;;;-1.41;66.77;98070.13;5046159;28;20053;-61
2023/01/18 06:50:17;;;;;;;15.90;8.98;;;;;;;-1.41;66.72;98072.88;5050096;28;20056;-62
2023/01/18 06:52:45;;;;;;;16.55;10.10;;;;;;;-1.37;67.28;98081.28;5049757;28;20053;-61
2023/01/18 06:55:14;;;;;;;19.50;11.02;;;;;;;-1.47;66.90;98080.34;5047792;28;20057;-62
2023/01/18 06:57:41;;;;;;;22.50;12.57;;;;;;;-1.50;66.65;98086.38;5042632;28;20053;-62
2023/01/18 07:00:10;;;;;;;19.70;11.20;;;;;;;-1.49;67.13;98087.19;5037259;28;20069;-61
2023/01/18 07:02:38;;;;;;;18.13;11.75;;;;;;;-1.42;67.42;98089.56;5035635;28;20050;-62
2023/01/18 07:05:06;;;;;;;17.98;10.98;;;;;;;-1.41;66.29;98086.53;5043149;28;20056;-62
2023/01/18 07:07:33;;;;;;;17.67;10.40;;;;;;;-1.40;66.61;98096.34;5048501;28;20061;-60
2023/01/18 07:10:00;;;;;;;17.17;10.63;;;;;;;-1.40;66.49;98099.09;5046523;28;20048;-60
2023/01/18 07:12:29;;;;;;;18.33;11.13;;;;;;;-1.39;67.17;98097.16;5051059;28;20049;-62
2023/01/18 07:14:57;;;;;;;18.02;10.40;;;;;;;-1.40;67.16;98101.81;5044262;28;20486;-61
2023/01/18 07:17:24;;;;;;;16.85;10.50;;;;;;;-1.38;66.48;98102.34;5046669;28;20053;-62
2023/01/18 07:19:51;;;;;;;20.77;10.18;;;;;;;-1.41;67.38;98102.91;5036128;28;20076;-62
2023/01/18 07:22:18;;;;;;;17.52;9.65;;;;;;;-1.41;67.16;98105.63;5048373;28;20053;-62
2023/01/18 07:24:46;;;;;;;21.40;12.60;;;;;;;-1.43;67.29;98116.03;5042685;28;20080;-62
2023/01/18 07:27:13;;;;;;;21.55;11.85;;;;;;;-1.48;67.06;98116.91;5045629;28;20052;-62
2023/01/18 07:29:42;;;;;;;18.55;10.55;;;;;;;-1.47;67.69;98115.84;5051889;28;20060;-62
2023/01/18 07:32:09;;;;;;;20.27;11.70;;;;;;;-1.43;67.27;98118.75;5048641;28;20048;-62
2023/01/18 07:34:36;;;;;;;20.00;11.52;;;;;;;-1.41;67.08;98126.66;5048210;28;20049;-62
2023/01/18 07:37:03;;;;;;;17.70;10.70;;;;;;;-1.31;67.16;98127.34;5044736;28;20060;-62
2023/01/18 07:39:31;;;;;;;18.02;11.18;;;;;;;-1.19;66.87;98137.03;5049072;28;20044;-64
2023/01/18 07:41:58;;;;;;;18.63;10.80;;;;;;;-1.18;67.25;98147.66;5046746;28;20059;-64
2023/01/18 07:44:32;;;;;;;22.02;12.65;;;;;;;-1.16;67.01;98155.56;5039311;28;20059;-64
2023/01/18 07:47:00;;;;;;;24.27;10.95;;;;;;;-1.11;66.52;98153.56;5043595;28;20052;-65
2023/01/18 07:49:28;;;;;;;20.48;11.98;;;;;;;-1.00;67.14;98148.78;5044696;28;20052;-62
2023/01/18 07:51:55;;;;;;;16.77;10.98;;;;;;;-0.93;66.42;98154.66;5046642;28;20055;-64
2023/01/18 07:54:22;;;;;;;19.80;11.07;;;;;;;-0.84;66.38;98152.91;5045190;28;20064;-64
2023/01/18 07:56:50;;;;;;;17.67;10.93;;;;;;;-0.74;66.16;98153.84;5040297;28;20072;-65
2023/01/18 07:59:17;;;;;;;14.35;9.38;;;;;;;-0.72;65.82;98160.63;5044759;28;20061;-64
2023/01/18 08:01:44;;;;;;;19.15;11.50;;;;;;;-0.69;65.65;98168.25;5046223;28;20076;-61
2023/01/18 08:04:13;;;;;;;19.25;10.38;;;;;;;-0.61;65.76;98166.75;5044513;28;20049;-65
2023/01/18 08:06:40;;;;;;;17.60;10.70;;;;;;;-0.58;65.33;98171.63;5040582;28;20068;-64
2023/01/18 08:09:07;;;;;;;18.58;11.32;;;;;;;-0.54;65.57;98183.59;5045647;28;20053;-64
2023/01/18 08:11:35;;;;;;;16.17;10.35;;;;;;;-0.44;65.26;98177.97;5044149;28;20524;-63
2023/01/18 08:14:02;;;;;;;16.88;10.18;;;;;;;-0.32;64.70;98173.94;5048069;28;20053;-64
2023/01/18 08:16:29;;;;;;;21.50;10.73;;;;;;;-0.14;64.69;98183.22;5047291;28;20057;-65
2023/01/18 08:18:56;;;;;;;20.33;11.82;;;;;;;-0.20;64.26;98190.69;5047288;28;20072;-65
2023/01/18 08:21:25;;;;;;;17.63;11.13;;;;;;;-0.16;63.61;98189.00;5036919;28;20443;-63
2023/01/18 08:23:53;;;;;;;18.58;11.90;;;;;;;-0.03;63.68;98199.16;5046096;28;20299;-65
2023/01/18 08:26:20;;;;;;;20.27;11.20;;;;;;;0.07;63.54;98205.56;5049877;28;20083;-65
2023/01/18 08:28:47;;;;;;;16.88;10.20;;;;;;;0.22;63.39;98210.75;5043204;28;20064;-61
2023/01/18 08:31:17;;;;;;;16.33;10.63;;;;;;;0.46;63.05;98215.22;5048232;28;20988;-65
2023/01/18 08:33:47;;;;;;;16.75;10.00;;;;;;;0.60;62.45;98216.06;5047180;28;20053;-65
2023/01/18 08:36:16;;;;;;;17.38;10.77;;;;;;;0.66;62.25;98214.03;5046677;28;20064;-65
2023/01/18 08:38:48;;;;;;;17.58;10.88;;;;;;;0.84;62.27;98231.47;5048840;28;20072;-64
2023/01/18 08:41:15;;;;;;;18.42;11.85;;;;;;;0.94;61.46;98234.81;5040202;28;20052;-65
2023/01/18 08:43:43;;;;;;;17.35;11.77;;;;;;;1.12;61.25;98233.06;5044565;28;20048;-64
2023/01/18 08:46:10;;;;;;;17.88;11.23;;;;;;;1.46;60.98;98226.28;5045675;28;20048;-65
2023/01/18 08:48:37;;;;;;;17.42;11.30;;;;;;;1.71;60.51;98227.59;5045250;28;20048;-65
2023/01/18 08:51:05;;;;;;;18.50;12.02;;;;;;;1.96;59.46;98233.59;5046997;28;20060;-64
2023/01/18 08:53:32;;;;;;;18.13;11.57;;;;;;;2.10;59.62;98228.84;5042982;28;20072;-63
2023/01/18 08:56:04;;;;;;;17.13;11.32;;;;;;;2.32;58.35;98232.69;5045536;28;20049;-65
2023/01/18 08:58:31;;;;;;;16.25;12.05;;;;;;;2.44;58.61;98230.97;5050121;28;20057;-64
2023/01/18 09:00:58;;;;;;;17.38;11.77;;;;;;;2.58;57.50;98232.78;5044832;28;20059;-65
2023/01/18 09:03:25;;;;;;;19.35;12.15;;;;;;;2.67;57.92;98238.31;5039717;28;20041;-65
2023/01/18 09:05:53;;;;;;;20.33;12.27;;;;;;;2.67;57.57;98241.91;5035481;28;20057;-65
2023/01/18 09:08:20;;;;;;;21.63;13.80;;;;;;;2.67;58.30;98255.66;5043994;28;20048;-65
2023/01/18 09:10:47;;;;;;;19.33;11.75;;;;;;;3.13;57.29;98251.59;5051659;28;20049;-64
2023/01/18 09:13:16;;;;;;;19.60;12.73;;;;;;;3.43;56.42;98254.56;5050157;28;20049;-63
2023/01/18 09:15:45;;;;;;;21.42;13.60;;;;;;;3.62;56.86;98257.81;5048004;28;20409;-66
2023/01/18 09:18:13;;;;;;;21.23;15.23;;;;;;;3.89;56.14;98258.63;5051953;28;20053;-65
2023/01/18 09:20:42;;;;;;;66.38;18.98;;;;;;;3.94;55.90;98263.97;5043782;28;20065;-64
2023/01/18 09:23:10;;;;;;;59.95;17.92;;;;;;;4.04;56.07;98268.34;5048373;28;20048;-64
2023/01/18 09:25:39;;;;;;;23.20;14.15;;;;;;;3.99;54.76;98274.00;5048093;28;20501;-64
2023/01/18 09:28:07;;;;;;;27.27;15.95;;;;;;;4.17;54.86;98278.38;5051554;28;20076;-64
2023/01/18 09:30:35;;;;;;;23.50;15.05;;;;;;;4.30;55.57;98281.25;5044212;28;20421;-64
2023/01/18 09:33:03;;;;;;;23.95;15.32;;;;;;;4.39;54.65;98285.63;5044712;28;20057;-64
2023/01/18 09:35:31;;;;;;;23.15;16.50;;;;;;;4.63;54.35;98289.78;5048610;28;20049;-64
2023/01/18 09:37:59;;;;;;;22.98;15.13;;;;;;;5.04;53.45;98296.59;5048376;28;20052;-64
2023/01/18 09:40:43;;;;;;;23.23;16.75;;;;;;;5.65;52.03;98299.84;5039304;28;20068;-65
2023/01/18 09:43:22;;;;;;;24.42;14.95;;;;;;;5.73;52.05;98300.91;5037878;28;20111;-63
2023/01/18 09:45:50;;;;;;;22.73;15.80;;;;;;;6.21;50.81;98299.59;5044876;28;20044;-63
2023/01/18 09:48:27;;;;;;;22.63;15.77;;;;;;;7.22;49.09;98292.78;5041754;28;21030;-63
2023/01/18 09:50:59;;;;;;;21.75;15.00;;;;;;;7.15;48.89;98298.09;5049737;28;20080;-59
2023/01/18 09:53:41;;;;;;;51.97;16.42;;;;;;;7.65;47.14;98288.63;5042392;28;20068;-62
2023/01/18 09:56:16;;;;;;;26.27;17.17;;;;;;;7.48;46.80;98288.88;5043540;28;20628;-63
2023/01/18 09:58:53;;;;;;;22.98;14.88;;;;;;;7.99;46.35;98289.25;5039370;28;20507;-65
2023/01/18 10:01:25;;;;;;;23.13;15.02;;;;;;;8.14;47.67;98298.78;5048903;28;20063;-60
2023/01/18 10:03:55;;;;;;;21.00;14.85;;;;;;;8.54;45.89;98304.31;5049729;28;20052;-58
2023/01/18 10:06:27;;;;;;;21.52;16.02;;;;;;;8.57;46.23;98300.03;5047596;28;20045;-57
2023/01/18 10:08:59;;;;;;;19.90;14.85;;;;;;;8.35;45.26;98301.34;5047096;28;20056;-57
2023/01/18 10:11:35;;;;;;;21.02;14.68;;;;;;;8.92;45.41;98294.63;5051254;28;20405;-57
2023/01/18 10:14:08;;;;;;;19.73;14.35;;;;;;;9.08;44.16;98296.59;5047489;28;20048;-57
2023/01/18 10:16:37;;;;;;;19.02;14.73;;;;;;;8.77;45.79;98297.38;5043498;28;20120;-57
2023/01/18 10:19:15;;;;;;;20.88;15.35;;;;;;;8.51;46.08;98302.25;5033768;28;20049;-57
2023/01/18 10:21:52;;;;;;;20.05;15.00;;;;;;;8.87;45.28;98294.88;5037906;28;20064;-57
2023/01/18 10:24:30;;;;;;;21.35;14.70;;;;;;;8.87;46.60;98303.22;5048557;28;20045;-62
2023/01/18 10:27:12;;;;;;;23.02;15.63;;;;;;;8.82;45.26;98311.81;5044392;28;20053;-62
2023/01/18 10:29:53;;;;;;;18.58;14.02;;;;;;;8.96;46.17;98303.03;5047685;28;20064;-62
2023/01/18 10:32:26;;;;;;;19.95;14.90;;;;;;;9.93;44.79;98310.91;5049577;28;20409;-58
2023/01/18 10:34:53;;;;;;;18.65;14.15;;;;;;;11.52;41.97;98308.00;5050385;28;20056;-59
2023/01/18 10:37:32;;;;;;;20.92;14.77;;;;;;;12.91;40.26;98302.66;5048977;28;20045;-59
2023/01/18 10:40:02;;;;;;;17.73;13.90;;;;;;;14.40;37.42;98300.59;5044544;28;20056;-59
2023/01/18 10:42:39;;;;;;;19.35;14.50;;;;;;;14.44;37.18;98303.41;5049125;28;20049;-59
2023/01/18 10:45:18;;;;;;;19.50;14.57;;;;;;;13.35;37.38;98303.91;5038566;28;20067;-59
2023/01/18 10:47:47;;;;;;;17.92;13.85;;;;;;;12.89;39.20;98293.88;5046051;28;20053;-60
2023/01/18 10:50:17;;;;;;;18.63;14.37;;;;;;;12.87;38.22;98304.66;5048666;28;20075;-60
2023/01/18 10:52:44;;;;;;;16.95;13.13;;;;;;;12.80;38.28;98304.56;5048043;28;20053;-66
2023/01/18 10:55:16;;;;;;;18.30;14.25;;;;;;;13.50;37.04;98316.00;5045508;28;20053;-66
2023/01/18 10:57:46;;;;;;;17.15;13.52;;;;;;;12.90;37.29;98317.84;5047400;28;20045;-65
2023/01/18 11:00:22;;;;;;;18.60;13.30;;;;;;;12.31;39.76;98323.13;5037103;28;20044;-66
2023/01/18 11:02:54;;;;;;;19.65;15.35;;;;;;;13.37;37.67;98323.91;5047559;28;20049;-65
2023/01/18 11:05:36;;;;;;;17.02;13.57;;;;;;;15.13;35.06;98322.06;5050238;28;20045;-60
2023/01/18 11:08:19;;;;;;;21.30;14.10;;;;;;;14.82;34.11;98325.22;5052587;28;20056;-60
2023/01/18 11:10:58;;;;;;;14.00;12.43;;;;;;;13.21;36.93;98332.53;5049065;28;20045;-61
2023/01/18 11:13:29;;;;;;;16.20;12.48;;;;;;;12.84;38.43;98324.16;5048966;28;20049;-62
2023/01/18 11:16:04;;;;;;;17.48;13.95;;;;;;;12.44;38.26;98326.47;5045161;28;20076;-61
2023/01/18 11:18:33;;;;;;;14.70;13.13;;;;;;;12.39;38.01;98336.00;5055210;28;20056;-61
2023/01/18 11:21:01;;;;;;;15.45;12.10;;;;;;;13.37;37.35;98327.50;5042692;28;20053;-61
2023/01/18 11:23:34;;;;;;;14.82;11.45;;;;;;;14.83;34.23;98328.81;5047762;28;20377;-66
2023/01/18 11:26:06;;;;;;;15.30;12.23;;;;;;;14.07;35.13;98332.41;5041146;28;20072;-66
2023/01/18 11:28:39;;;;;;;15.02;12.45;;;;;;;14.23;33.83;98330.09;5050273;28;20052;-66
2023/01/18 11:31:11;;;;;;;16.52;12.13;;;;;;;15.07;33.43;98340.47;5045752;28;20060;-65
2023/01/18 11:33:49;;;;;;;16.25;13.43;;;;;;;16.34;31.86;98329.66;5046139;28;20048;-67
2023/01/18 11:36:19;;;;;;;14.70;11.88;;;;;;;17.39;29.89;98321.53;5042705;28;20448;-64
2023/01/18 11:38:47;;;;;;;;;;;;;;;16.95;29.88;98331.44;5051736;28;20063;-67
2023/01/18 11:41:18;;;;;;;14.32;11.40;;;;;;;14.81;34.38;98342.41;5048487;28;19931;-67
2023/01/18 11:43:59;;;;;;;15.43;13.13;;;;;;;14.62;34.47;98329.53;5049315;28;20433;-65
2023/01/18 11:46:34;;;;;;;15.02;13.35;;;;;;;16.18;32.06;98327.28;5043636;28;20049;-66
2023/01/18 11:49:15;;;;;;;15.30;12.45;;;;;;;18.48;28.27;98324.94;5041547;28;20049;-67
2023/01/18 11:51:54;;;;;;;17.25;12.15;;;;;;;18.03;30.52;98323.78;5046399;28;20064;-66
2023/01/18 11:54:30;;;;;;;15.65;12.70;;;;;;;17.75;29.89;98324.84;5042367;28;20052;-67
2023/01/18 11:57:01;;;;;;;15.25;13.45;;;;;;;17.84;30.18;98328.00;5041419;28;20057;-66
2023/01/18 11:59:30;;;;;;;19.25;14.35;;;;;;;17.15;30.57;98331.72;5046327;28;20045;-67
2023/01/18 12:02:33;;;;;;;17.95;14.52;;;;;;;18.09;30.22;98337.44;5038618;28;20398;-61
2023/01/18 12:05:21;;;;;;;18.10;16.60;;;;;;;20.66;27.10;98321.53;5039301;28;20045;-61
2023/01/18 12:07:59;;;;;;;29.20;27.15;;;;;;;21.92;24.99;98320.69;5050617;28;20049;-62